Terminal Aerodrome Forecast
Issued by NWS Topeka, KS

Home | Current Version | Previous Version | Text Only | Print | Product List | Glossary On
Versions: 1 2 3 4 5 6 7 8 9 10 11 12 13 14 15 16 17 18
667
FTUS43 KTOP 241028 AAA
TAFTOP
TAF AMD
KTOP 241028Z 2410/2506 16011KT P6SM SCT045 SCT150
      TEMPO 2410/2413 BKN010=

USA.gov is the U.S. government's official web portal to all federal, state and local government web resources and services.